createdAt,value
2023-02-27T00:06:27.243Z,8.20
2023-02-27T00:19:33.089Z,8.10
2023-02-27T02:36:38.242Z,9.50
2023-02-27T02:45:46.287Z,9.30
2023-02-27T05:17:20.648Z,10.50
2023-02-27T06:55:10.494Z,10.50
2023-02-27T07:18:11.169Z,9.80
2023-02-27T07:41:29.652Z,9.30
2023-02-27T08:05:00.097Z,8.20
2023-02-27T08:07:28.556Z,8.80
2023-02-27T08:09:56.844Z,9.70
2023-02-27T08:12:25.682Z,8.90
2023-02-27T08:14:54.615Z,7.40
2023-02-27T08:17:22.789Z,8.80
2023-02-27T08:19:50.951Z,7.90
2023-02-27T08:22:19.353Z,8.80
2023-02-27T08:24:47.597Z,7.80
2023-02-27T08:27:15.864Z,9.80
2023-02-27T08:29:45.661Z,9.20
2023-02-27T08:32:14.233Z,8.60
2023-02-27T08:34:43.931Z,9.00
2023-02-27T08:37:12.613Z,8.60
2023-02-27T08:39:41.394Z,8.70
2023-02-27T08:42:10.305Z,8.80
2023-02-27T08:44:39.486Z,9.50
2023-02-27T08:47:08.520Z,7.90
2023-02-27T08:49:37.145Z,7.90
2023-02-27T08:52:06.124Z,7.90
2023-02-27T08:54:34.375Z,8.10
2023-02-27T08:57:04.063Z,7.70
2023-02-27T08:59:32.441Z,8.30
2023-02-27T09:02:00.627Z,7.70
2023-02-27T09:04:30.131Z,7.60
2023-02-27T09:06:59.346Z,6.70
2023-02-27T09:09:27.754Z,7.10
2023-02-27T09:11:56.165Z,6.70
2023-02-27T09:14:25.120Z,7.80
2023-02-27T09:16:55.953Z,6.60
2023-02-27T09:19:24.521Z,7.00
2023-02-27T09:21:52.748Z,6.30
2023-02-27T09:24:27.727Z,6.00
2023-02-27T09:26:56.516Z,6.20
2023-02-27T09:29:25.839Z,5.90
2023-02-27T09:31:54.625Z,6.40
2023-02-27T09:34:23.084Z,6.70
2023-02-27T09:36:52.282Z,5.90
2023-02-27T09:39:20.587Z,6.20
2023-02-27T09:41:55.717Z,5.10
2023-02-27T09:44:39.785Z,5.70
2023-02-27T09:47:37.270Z,6.60
2023-02-27T09:50:34.917Z,6.10
2023-02-27T09:53:03.538Z,6.30
2023-02-27T09:55:35.182Z,6.10
2023-02-27T09:58:24.738Z,5.30
2023-02-27T10:01:14.985Z,5.60
2023-02-27T10:03:59.304Z,6.60
2023-02-27T10:06:29.448Z,5.90
2023-02-27T10:09:14.053Z,6.10
2023-02-27T10:11:42.902Z,6.20
2023-02-27T10:14:34.435Z,7.00
2023-02-27T10:17:04.354Z,7.20
2023-02-27T10:19:35.845Z,5.60
2023-02-27T10:22:06.149Z,6.40
2023-02-27T10:24:38.680Z,6.70
2023-02-27T10:27:07.645Z,6.40
2023-02-27T10:29:39.756Z,6.40
2023-02-27T10:32:16.542Z,6.40
2023-02-27T10:34:47.338Z,5.60
2023-02-27T10:37:17.498Z,5.80
2023-02-27T10:39:56.846Z,5.90
2023-02-27T10:42:27.983Z,5.50
2023-02-27T10:44:56.479Z,6.40
2023-02-27T10:47:25.093Z,6.60
2023-02-27T10:49:54.146Z,7.50
2023-02-27T10:52:22.754Z,6.40
2023-02-27T10:54:53.152Z,6.60
2023-02-27T10:57:23.991Z,5.40
2023-02-27T10:59:56.023Z,6.20
2023-02-27T11:02:36.713Z,6.00
2023-02-27T11:05:26.342Z,6.00
2023-02-27T11:07:56.984Z,6.00
2023-02-27T11:10:28.973Z,5.10
2023-02-27T11:13:06.657Z,6.00
2023-02-27T11:15:37.636Z,4.90
2023-02-27T11:18:21.790Z,5.40
2023-02-27T11:20:50.983Z,5.70
2023-02-27T11:23:23.226Z,5.40
2023-02-27T11:25:51.829Z,5.30
2023-02-27T11:28:28.937Z,4.90
2023-02-27T11:31:00.817Z,6.00
2023-02-27T11:33:32.025Z,5.80
2023-02-27T11:36:00.648Z,5.50
2023-02-27T11:38:54.705Z,5.50
2023-02-27T11:41:33.194Z,6.70
2023-02-27T11:44:02.507Z,6.40
2023-02-27T11:46:47.279Z,5.40
2023-02-27T11:49:50.304Z,6.60
2023-02-27T11:52:24.144Z,5.90
2023-02-27T11:54:55.880Z,6.10
2023-02-27T11:57:24.012Z,6.20
2023-02-27T12:00:31.634Z,6.90
2023-02-27T12:03:37.819Z,5.90
2023-02-27T12:06:36.354Z,6.30
2023-02-27T12:09:35.586Z,6.60
2023-02-27T12:12:09.141Z,5.70
2023-02-27T12:14:54.991Z,6.60
2023-02-27T12:18:00.303Z,6.10
2023-02-27T12:20:41.101Z,5.80
2023-02-27T12:23:20.985Z,6.60
2023-02-27T12:26:08.205Z,6.50
2023-02-27T12:28:50.196Z,5.70
2023-02-27T12:31:36.963Z,6.70
2023-02-27T12:34:27.411Z,5.30
2023-02-27T12:37:01.375Z,5.50
2023-02-27T12:39:30.044Z,5.90
2023-02-27T12:42:17.423Z,8.00
2023-02-27T12:45:09.311Z,6.30
2023-02-27T12:48:08.553Z,6.50
2023-02-27T12:50:45.646Z,6.10
2023-02-27T12:53:23.823Z,6.80
2023-02-27T12:56:19.542Z,6.70
2023-02-27T12:58:56.053Z,7.10
2023-02-27T13:02:03.520Z,6.90
2023-02-27T13:05:01.124Z,6.60
2023-02-27T13:07:38.946Z,7.40
2023-02-27T13:10:31.532Z,6.40
2023-02-27T13:13:24.352Z,6.30
2023-02-27T13:16:00.747Z,5.50
2023-02-27T13:18:38.897Z,6.20
2023-02-27T13:21:19.546Z,6.40
2023-02-27T13:23:50.076Z,5.70
2023-02-27T13:26:40.042Z,6.90
2023-02-27T13:29:12.654Z,6.00
2023-02-27T13:32:00.299Z,6.30
2023-02-27T13:34:44.536Z,6.60
2023-02-27T13:37:12.983Z,6.50
2023-02-27T13:39:48.933Z,6.60
2023-02-27T13:42:27.539Z,6.60
2023-02-27T13:44:59.838Z,6.60
2023-02-27T13:47:31.190Z,6.00
2023-02-27T13:50:02.020Z,6.20
2023-02-27T13:52:37.679Z,6.10
2023-02-27T13:55:28.778Z,6.70
2023-02-27T13:57:58.475Z,7.00
2023-02-27T14:00:30.669Z,6.50
2023-02-27T14:03:09.353Z,6.00
2023-02-27T14:05:44.119Z,5.50
2023-02-27T14:08:12.353Z,6.80
2023-02-27T14:10:41.671Z,6.20
2023-02-27T14:13:47.642Z,6.30
2023-02-27T14:16:37.741Z,7.30
2023-02-27T14:19:15.707Z,7.00
2023-02-27T14:22:01.327Z,7.20
2023-02-27T14:24:44.743Z,6.90
2023-02-27T14:27:22.818Z,5.70
2023-02-27T14:29:52.030Z,5.00
2023-02-27T14:32:23.460Z,4.40
2023-02-27T14:34:52.751Z,6.30
2023-02-27T14:37:23.656Z,5.40
2023-02-27T14:39:53.485Z,5.70
2023-02-27T14:42:30.591Z,5.20
2023-02-27T14:45:01.639Z,5.70
2023-02-27T14:47:33.695Z,6.30
2023-02-27T14:50:04.146Z,5.60
2023-02-27T14:52:40.812Z,6.40
2023-02-27T14:55:11.952Z,6.80
2023-02-27T15:00:30.004Z,5.20
2023-02-27T15:02:58.599Z,6.00
2023-02-27T15:05:32.263Z,5.20
2023-02-27T15:08:02.352Z,5.70
2023-02-27T15:10:31.348Z,5.50
2023-02-27T15:13:00.256Z,5.20
2023-02-27T15:15:29.197Z,5.10
2023-02-27T15:17:57.401Z,4.40
2023-02-27T15:20:33.847Z,5.20
2023-02-27T15:23:20.159Z,5.00
2023-02-27T15:25:49.083Z,5.00
2023-02-27T15:28:22.513Z,5.30
2023-02-27T15:30:51.464Z,5.20
2023-02-27T15:33:22.614Z,5.70
2023-02-27T15:35:51.003Z,5.00
2023-02-27T15:38:35.062Z,5.20
2023-02-27T15:41:03.712Z,5.10
2023-02-27T15:43:32.039Z,5.50
2023-02-27T15:46:00.621Z,5.50
2023-02-27T15:48:30.002Z,5.70
2023-02-27T15:50:59.003Z,5.90
2023-02-27T15:53:28.588Z,5.00
2023-02-27T15:56:01.868Z,4.40
2023-02-27T15:58:38.628Z,5.20
2023-02-27T16:01:15.017Z,5.90
2023-02-27T16:03:48.067Z,5.50
2023-02-27T16:06:23.588Z,6.00
2023-02-27T16:08:54.123Z,5.50
2023-02-27T16:11:27.980Z,5.40
2023-02-27T16:13:57.799Z,4.80
2023-02-27T16:16:36.213Z,5.70
2023-02-27T16:19:24.591Z,5.50
2023-02-27T16:22:13.843Z,5.20
2023-02-27T16:24:42.206Z,5.80
2023-02-27T16:27:17.713Z,6.00
2023-02-27T16:29:46.123Z,5.80
2023-02-27T16:34:52.561Z,7.30
2023-02-27T16:37:31.274Z,5.80
2023-02-27T16:39:59.510Z,5.40
2023-02-27T16:42:28.347Z,5.90
2023-02-27T16:44:57.806Z,6.20
2023-02-27T16:47:26.157Z,5.80
2023-02-27T16:49:55.456Z,6.50
2023-02-27T16:52:24.021Z,6.60
2023-02-27T16:54:52.702Z,6.40
2023-02-27T16:57:24.939Z,6.10
2023-02-27T16:59:53.187Z,6.40
2023-02-27T17:02:21.630Z,7.30
2023-02-27T17:04:50.180Z,7.00
2023-02-27T17:07:18.569Z,5.90
2023-02-27T17:09:47.429Z,5.80
2023-02-27T17:12:15.843Z,6.00
2023-02-27T17:14:45.617Z,6.10
2023-02-27T17:17:13.826Z,6.60
2023-02-27T17:19:42.092Z,6.20
2023-02-27T17:22:10.976Z,6.90
2023-02-27T17:24:40.185Z,7.10
2023-02-27T17:27:09.538Z,7.20
2023-02-27T17:29:38.808Z,6.90
2023-02-27T17:32:08.149Z,7.70
2023-02-27T17:34:36.377Z,7.50
2023-02-27T17:37:04.715Z,7.50
2023-02-27T17:39:33.668Z,7.00
2023-02-27T17:42:02.127Z,9.30
2023-02-27T17:44:30.588Z,8.90
2023-02-27T17:47:01.274Z,7.70
2023-02-27T17:49:29.471Z,8.20
2023-02-27T17:52:00.720Z,8.40
2023-02-27T17:54:29.611Z,9.20
2023-02-27T17:56:57.878Z,7.90
2023-02-27T17:59:26.473Z,8.20
2023-02-27T18:01:55.639Z,8.10
2023-02-27T18:04:24.046Z,8.20
2023-02-27T18:06:52.296Z,7.70
2023-02-27T18:09:20.606Z,9.00
2023-02-27T18:11:50.006Z,8.10
2023-02-27T18:14:19.918Z,8.30
2023-02-27T18:16:48.306Z,7.80
2023-02-27T18:19:16.621Z,8.30
2023-02-27T18:21:47.431Z,8.80
2023-02-27T18:24:16.179Z,8.70
2023-02-27T18:26:45.496Z,8.80
2023-02-27T18:29:14.593Z,8.40
2023-02-27T18:31:44.717Z,9.00
2023-02-27T18:34:13.113Z,8.80
2023-02-27T18:36:41.593Z,8.20
2023-02-27T18:39:10.016Z,7.40
2023-02-27T18:41:39.530Z,8.80
2023-02-27T18:44:09.090Z,7.60
2023-02-27T18:46:38.275Z,8.20
2023-02-27T18:49:10.595Z,7.90
2023-02-27T18:51:39.803Z,7.50
2023-02-27T18:54:15.568Z,8.20
2023-02-27T18:56:48.702Z,9.40
2023-02-27T18:59:17.041Z,8.50
2023-02-27T19:01:45.396Z,7.80
2023-02-27T19:04:15.029Z,7.80
2023-02-27T19:06:44.776Z,9.50
2023-02-27T19:09:18.019Z,7.80
2023-02-27T19:11:47.005Z,8.10
2023-02-27T19:14:16.243Z,7.80
2023-02-27T19:16:47.679Z,8.60
2023-02-27T19:19:15.850Z,9.00
2023-02-27T19:21:44.648Z,8.60
2023-02-27T19:24:13.102Z,9.00
2023-02-27T19:26:41.742Z,8.90
2023-02-27T19:29:14.055Z,8.50
2023-02-27T19:31:44.603Z,8.30
2023-02-27T19:34:13.177Z,9.20
2023-02-27T19:36:43.071Z,8.60
2023-02-27T19:39:11.509Z,7.70
2023-02-27T19:41:39.835Z,8.60
2023-02-27T19:44:08.609Z,8.50
2023-02-27T19:46:36.917Z,7.80
2023-02-27T19:49:05.561Z,8.00
2023-02-27T19:51:39.066Z,8.80
2023-02-27T19:54:07.569Z,7.70
2023-02-27T19:56:35.760Z,8.30
2023-02-27T19:59:04.254Z,7.80
2023-02-27T20:01:38.993Z,8.40
2023-02-27T20:04:08.595Z,8.10
2023-02-27T20:06:42.730Z,8.10
2023-02-27T20:09:14.563Z,7.40
2023-02-27T20:11:45.137Z,7.70
2023-02-27T20:14:14.197Z,7.80
2023-02-27T20:16:42.719Z,8.60
2023-02-27T20:19:13.092Z,8.80
2023-02-27T20:21:41.703Z,8.30
2023-02-27T20:24:14.511Z,8.70
2023-02-27T20:26:53.606Z,7.10
2023-02-27T20:29:23.150Z,7.50
2023-02-27T20:31:51.832Z,7.50
2023-02-27T20:34:23.823Z,6.60
2023-02-27T20:36:55.015Z,7.20
2023-02-27T20:39:24.863Z,8.20
2023-02-27T20:41:54.858Z,7.60
2023-02-27T20:44:23.130Z,7.40
2023-02-27T20:46:51.810Z,8.90
2023-02-27T20:49:20.962Z,7.50
2023-02-27T20:51:50.148Z,7.30
2023-02-27T20:54:20.820Z,7.70
2023-02-27T20:56:54.486Z,7.40
2023-02-27T20:59:23.678Z,8.50
2023-02-27T21:01:53.459Z,7.70
2023-02-27T21:04:25.220Z,7.80
2023-02-27T21:06:57.920Z,7.90
2023-02-27T21:09:26.319Z,7.70
2023-02-27T21:11:55.286Z,7.60
2023-02-27T21:14:24.667Z,8.00
2023-02-27T21:16:53.004Z,8.40
2023-02-27T21:19:21.901Z,8.30
2023-02-27T21:21:50.960Z,7.30
2023-02-27T21:24:19.132Z,7.70
2023-02-27T21:26:47.690Z,7.80
2023-02-27T21:29:18.092Z,8.20
2023-02-27T21:31:49.184Z,7.40
2023-02-27T21:34:20.206Z,7.90
2023-02-27T21:36:54.335Z,6.90
2023-02-27T21:39:42.355Z,7.70
2023-02-27T21:42:10.651Z,7.00
2023-02-27T21:44:38.934Z,8.10
2023-02-27T21:47:10.305Z,7.40
2023-02-27T21:49:39.568Z,7.70
2023-02-27T21:52:08.175Z,8.10
2023-02-27T21:54:39.213Z,6.90
2023-02-27T21:57:08.053Z,6.60
2023-02-27T21:59:37.118Z,7.20
2023-02-27T22:02:05.954Z,8.00
2023-02-27T22:04:35.503Z,7.90
2023-02-27T22:07:03.897Z,7.90
2023-02-27T22:09:33.204Z,7.70
2023-02-27T22:12:04.026Z,7.80
2023-02-27T22:14:32.272Z,7.60
2023-02-27T22:17:06.482Z,7.20
2023-02-27T22:19:35.414Z,8.40
2023-02-27T22:22:03.698Z,7.60
2023-02-27T22:24:32.644Z,8.20
2023-02-27T22:27:01.041Z,7.20
2023-02-27T22:29:30.100Z,6.70
2023-02-27T22:31:58.425Z,7.50
2023-02-27T22:34:27.744Z,7.70
2023-02-27T22:36:56.540Z,7.90
2023-02-27T22:39:27.989Z,6.70
2023-02-27T22:41:57.470Z,7.20
2023-02-27T22:44:25.644Z,7.40
2023-02-27T22:46:55.082Z,6.40
2023-02-27T22:49:23.840Z,7.30
2023-02-27T22:51:52.397Z,6.80
2023-02-27T22:54:21.543Z,7.10
2023-02-27T22:56:51.529Z,6.50
2023-02-27T22:59:31.415Z,7.40
2023-02-27T23:02:01.038Z,6.70
2023-02-27T23:04:29.467Z,7.40
2023-02-27T23:06:57.997Z,7.00
2023-02-27T23:09:27.447Z,6.70
2023-02-27T23:11:55.823Z,7.00
2023-02-27T23:14:25.507Z,6.40
2023-02-27T23:16:55.647Z,6.60
2023-02-27T23:19:27.312Z,7.20
2023-02-27T23:22:00.042Z,6.90
2023-02-27T23:24:28.707Z,6.20
2023-02-27T23:26:56.910Z,6.20
2023-02-27T23:29:25.090Z,6.30
2023-02-27T23:31:53.891Z,5.90
2023-02-27T23:34:24.397Z,6.60
2023-02-27T23:36:52.909Z,6.00
2023-02-27T23:39:21.233Z,5.90
2023-02-27T23:41:49.902Z,6.40
2023-02-27T23:44:18.009Z,6.40
2023-02-27T23:46:47.856Z,5.90
2023-02-27T23:49:16.023Z,6.10
2023-02-27T23:51:44.629Z,5.30
2023-02-27T23:54:13.101Z,5.50
2023-02-27T23:56:43.493Z,6.50
2023-02-27T23:59:11.657Z,5.40
